Time;durP1;ratioP1;P1;durP2;ratioP2;P2;SDS_P1;SDS_P2;PMS_P1;PMS_P2;Temp;Humidity;BMP_temperature;BMP_pressure;BME280_temperature;BME280_humidity;BME280_pressure;Samples;Min_cycle;Max_cycle;Signal;HPM_P1;HPM_P2
2022/10/03 00:02:30;;;;;;;13.57;4.97;;;9.50;99.90;;;;;;6182649;23;20483;-73
2022/10/03 00:05:07;;;;;;;19.95;4.68;;;9.50;99.90;;;;;;6182639;23;20016;-74
2022/10/03 00:08:00;;;;;;;15.23;4.93;;;9.50;99.90;;;;;;6183066;23;20012;-74
2022/10/03 00:10:35;;;;;;;11.63;4.90;;;9.50;99.90;;;;;;6182218;23;20023;-73
2022/10/03 00:13:24;;;;;;;10.00;4.67;;;9.50;99.90;;;;;;6182470;23;20005;-74
2022/10/03 00:16:15;;;;;;;17.20;6.13;;;9.40;99.90;;;;;;6182681;23;20087;-73
2022/10/03 00:19:16;;;;;;;12.90;5.17;;;9.40;99.90;;;;;;6182608;23;20430;-73
2022/10/03 00:21:51;;;;;;;14.93;5.33;;;9.50;99.90;;;;;;6182787;23;20001;-73
2022/10/03 00:24:32;;;;;;;16.10;4.60;;;9.40;99.90;;;;;;6181887;23;20327;-74
2022/10/03 00:27:01;;;;;;;11.97;5.07;;;9.40;99.90;;;;;;6182450;23;20080;-73
2022/10/03 00:30:13;;;;;;;9.98;4.72;;;9.40;99.90;;;;;;6182553;23;19997;-73
2022/10/03 00:33:02;;;;;;;15.95;4.50;;;9.30;99.90;;;;;;6171217;23;20040;-73
2022/10/03 00:36:03;;;;;;;12.40;4.53;;;9.20;99.90;;;;;;6182860;23;20027;-73
2022/10/03 00:38:44;;;;;;;12.98;4.22;;;9.20;99.90;;;;;;6182091;23;20004;-73
2022/10/03 00:41:26;;;;;;;15.70;4.73;;;9.10;99.90;;;;;;6182506;23;20036;-73
2022/10/03 00:44:26;;;;;;;10.73;4.30;;;9.20;99.90;;;;;;6182369;23;20012;-73
2022/10/03 00:47:07;;;;;;;15.00;4.60;;;9.10;99.90;;;;;;6182243;23;20008;-73
2022/10/03 00:50:06;;;;;;;14.68;4.43;;;9.10;99.90;;;;;;6182801;23;20326;-73
2022/10/03 00:52:54;;;;;;;11.13;4.57;;;9.10;99.90;;;;;;6181889;23;20374;-73
2022/10/03 00:55:34;;;;;;;12.07;6.33;;;9.00;99.90;;;;;;6182420;23;20008;-73
2022/10/03 00:58:06;;;;;;;9.30;4.77;;;8.90;99.90;;;;;;6182307;23;20482;-73
2022/10/03 01:00:33;;;;;;;11.47;4.57;;;8.90;99.90;;;;;;6182385;23;20076;-73
2022/10/03 01:03:10;;;;;;;15.67;5.13;;;8.90;99.90;;;;;;6181624;23;20100;-74
2022/10/03 01:05:59;;;;;;;12.90;3.97;;;9.00;99.90;;;;;;6182517;23;20005;-74
2022/10/03 01:08:33;;;;;;;14.27;4.53;;;8.80;99.90;;;;;;6181627;23;20076;-73
2022/10/03 01:11:34;;;;;;;17.50;4.75;;;8.80;99.90;;;;;;6182321;23;20423;-73
2022/10/03 01:14:17;;;;;;;9.50;4.80;;;8.80;99.90;;;;;;6165587;23;20021;-73
2022/10/03 01:17:03;;;;;;;14.03;4.43;;;8.80;99.90;;;;;;6178324;23;20423;-73
2022/10/03 01:19:41;;;;;;;12.67;4.37;;;8.80;99.90;;;;;;6180936;23;20012;-73
2022/10/03 01:22:25;;;;;;;12.87;4.87;;;8.70;99.90;;;;;;6181415;23;20001;-73
2022/10/03 01:24:58;;;;;;;12.05;4.28;;;8.70;99.90;;;;;;6182182;23;20001;-73
2022/10/03 01:30:21;;;;;;;12.50;5.00;;;8.60;99.90;;;;;;6182205;23;20005;-73
2022/10/03 01:30:41;;;;;;;12.47;6.20;;;8.70;99.90;;;;;;6181957;23;20012;-73
2022/10/03 01:33:21;;;;;;;16.73;4.80;;;8.70;99.90;;;;;;6181882;23;20506;-73
2022/10/03 01:36:01;;;;;;;11.20;4.60;;;8.80;99.90;;;;;;6182127;23;20028;-73
2022/10/03 01:38:38;;;;;;;10.40;4.57;;;8.70;99.90;;;;;;6182313;23;20463;-73
2022/10/03 01:41:12;;;;;;;13.10;4.30;;;8.70;99.90;;;;;;6182070;23;20008;-73
2022/10/03 01:43:53;;;;;;;;;;;8.70;99.90;;;;;;6183118;23;20005;-73
2022/10/03 01:46:38;;;;;;;10.40;3.73;;;8.60;99.90;;;;;;6182200;23;19905;-73
2022/10/03 01:49:21;;;;;;;13.37;3.90;;;8.60;99.90;;;;;;6181977;23;20005;-73
2022/10/03 01:52:10;;;;;;;8.33;4.70;;;8.60;99.90;;;;;;6181410;23;20048;-73
2022/10/03 01:54:38;;;;;;;8.63;4.40;;;8.60;99.90;;;;;;6182197;23;20224;-73
2022/10/03 01:57:42;;;;;;;10.50;4.17;;;8.50;99.90;;;;;;6182085;23;20001;-73
2022/10/03 02:00:35;;;;;;;16.17;4.53;;;8.50;99.90;;;;;;6181980;23;20004;-73
2022/10/03 02:03:20;;;;;;;8.80;4.00;;;8.50;99.90;;;;;;6181727;23;20005;-73
2022/10/03 02:05:56;;;;;;;12.43;4.67;;;8.50;99.90;;;;;;6181233;23;19997;-73
2022/10/03 02:08:46;;;;;;;11.93;5.07;;;8.40;99.90;;;;;;6181818;23;20001;-73
2022/10/03 02:11:27;;;;;;;9.13;3.87;;;8.40;99.90;;;;;;6181505;23;20001;-73
2022/10/03 02:14:06;;;;;;;12.80;4.03;;;8.30;99.90;;;;;;6179550;23;20032;-73
2022/10/03 02:16:45;;;;;;;8.60;4.10;;;8.30;99.90;;;;;;6178884;23;20001;-73
2022/10/03 02:19:32;;;;;;;7.23;4.03;;;8.30;99.90;;;;;;6179621;23;20085;-73
2022/10/03 02:21:59;;;;;;;8.90;4.93;;;8.30;99.90;;;;;;6180221;23;20330;-73
2022/10/03 02:24:36;;;;;;;14.43;4.67;;;8.30;99.90;;;;;;6179848;23;20001;-73
2022/10/03 02:27:35;;;;;;;9.53;3.77;;;8.20;99.90;;;;;;6180712;23;20312;-73
2022/10/03 02:30:04;;;;;;;10.83;4.80;;;8.20;99.90;;;;;;6181352;23;20478;-73
2022/10/03 02:32:44;;;;;;;10.00;4.00;;;8.20;99.90;;;;;;6181726;23;20020;-73
2022/10/03 02:35:31;;;;;;;10.07;4.30;;;8.10;99.90;;;;;;6181303;23;20091;-73
2022/10/03 02:38:04;;;;;;;6.70;4.43;;;8.10;99.90;;;;;;6181600;23;20080;-73
2022/10/03 02:40:55;;;;;;;9.98;3.80;;;8.10;99.90;;;;;;6181198;23;20299;-73
2022/10/03 02:43:41;;;;;;;12.17;4.70;;;8.20;99.90;;;;;;6181401;23;20015;-73
2022/10/03 02:46:37;;;;;;;10.93;4.90;;;8.10;99.90;;;;;;6181964;23;20012;-73
2022/10/03 02:49:24;;;;;;;14.47;5.23;;;8.10;99.90;;;;;;6182731;23;20001;-73
2022/10/03 02:52:24;;;;;;;9.33;4.23;;;8.00;99.90;;;;;;6183265;23;20011;-74
2022/10/03 02:55:08;;;;;;;8.10;4.27;;;8.10;99.90;;;;;;6183579;23;20007;-74
2022/10/03 02:58:01;;;;;;;9.25;3.83;;;8.10;99.90;;;;;;6183581;23;20072;-74
2022/10/03 03:00:49;;;;;;;13.60;4.80;;;8.10;99.90;;;;;;6183448;23;20001;-73
2022/10/03 03:03:36;;;;;;;11.47;4.23;;;8.10;99.90;;;;;;6182195;23;20364;-73
2022/10/03 03:06:05;;;;;;;11.43;5.03;;;8.10;99.90;;;;;;6183522;23;20016;-73
2022/10/03 03:09:04;;;;;;;6.67;4.17;;;8.20;99.90;;;;;;6183429;23;20528;-74
2022/10/03 03:11:48;;;;;;;8.60;4.50;;;8.10;99.90;;;;;;6181975;23;20435;-73
2022/10/03 03:14:20;;;;;;;6.32;4.07;;;8.10;99.90;;;;;;6183190;23;20097;-74
2022/10/03 03:17:40;;;;;;;12.50;4.53;;;8.10;99.90;;;;;;6183348;23;20009;-74
2022/10/03 03:20:50;;;;;;;8.70;4.40;;;8.00;99.90;;;;;;6063372;23;20029;-73
2022/10/03 03:23:35;;;;;;;7.03;4.20;;;9.10;99.90;;;;;;6062283;23;20010;-73
2022/10/03 03:26:14;;;;;;;9.20;4.90;;;8.10;99.90;;;;;;6061903;23;20078;-73
2022/10/03 03:29:05;;;;;;;7.10;4.77;;;8.10;99.90;;;;;;6062478;23;20010;-73
2022/10/03 03:31:44;;;;;;;8.33;4.73;;;8.10;99.90;;;;;;6062130;23;20019;-73
2022/10/03 03:34:42;;;;;;;11.40;5.40;;;8.20;99.90;;;;;;6061807;23;20021;-73
2022/10/03 03:37:23;;;;;;;8.50;5.17;;;8.10;99.90;;;;;;6062071;23;20913;-73
2022/10/03 03:39:54;;;;;;;8.03;4.30;;;8.20;99.90;;;;;;6062308;23;20007;-74
2022/10/03 03:42:48;;;;;;;10.90;5.27;;;8.00;99.90;;;;;;6062939;23;20390;-73
2022/10/03 03:45:28;;;;;;;6.82;4.15;;;8.00;99.90;;;;;;6062350;23;20049;-73
2022/10/03 03:48:30;;;;;;;6.83;4.03;;;8.40;99.90;;;;;;6061959;23;20007;-74
2022/10/03 03:51:10;;;;;;;9.57;4.27;;;8.00;99.90;;;;;;6061625;23;20007;-73
2022/10/03 03:53:36;;;;;;;9.47;4.33;;;8.00;99.90;;;;;;6113862;23;20509;-73
2022/10/03 03:56:17;;;;;;;6.17;4.30;;;7.90;99.90;;;;;;6183120;23;19997;-73
2022/10/03 03:59:05;;;;;;;9.70;4.90;;;7.90;99.90;;;;;;6182539;23;20055;-73
2022/10/03 04:02:08;;;;;;;14.30;5.13;;;7.80;99.90;;;;;;6182328;23;20088;-73
2022/10/03 04:05:04;;;;;;;11.00;4.20;;;7.80;99.90;;;;;;6182716;23;20259;-73
2022/10/03 04:07:53;;;;;;;9.43;4.67;;;7.80;99.90;;;;;;6182983;23;20012;-73
2022/10/03 04:10:37;;;;;;;10.77;4.97;;;7.70;99.90;;;;;;6182430;23;20009;-73
2022/10/03 04:13:06;;;;;;;11.57;6.15;;;7.70;99.90;;;;;;6182904;23;20016;-73
2022/10/03 04:16:05;;;;;;;9.53;4.47;;;7.70;99.90;;;;;;6182229;23;20055;-73
2022/10/03 04:18:57;;;;;;;8.87;4.87;;;7.70;99.90;;;;;;6182696;23;20005;-73
2022/10/03 04:21:48;;;;;;;8.47;4.47;;;7.60;99.90;;;;;;6182547;23;19997;-73
2022/10/03 04:24:44;;;;;;;10.70;4.73;;;7.60;99.90;;;;;;6182453;23;20023;-73
2022/10/03 04:27:21;;;;;;;6.80;4.57;;;7.60;99.90;;;;;;6182842;23;20493;-73
2022/10/03 04:30:05;;;;;;;11.80;5.40;;;7.60;99.90;;;;;;6182545;23;20120;-74
2022/10/03 04:32:36;;;;;;;;;;;7.60;99.90;;;;;;6182972;23;20020;-73
2022/10/03 04:35:32;;;;;;;10.37;4.40;;;7.50;99.90;;;;;;6182799;23;19928;-73
2022/10/03 04:38:38;;;;;;;8.50;4.13;;;7.50;99.90;;;;;;6182361;23;20028;-74
2022/10/03 04:41:11;;;;;;;11.70;5.13;;;7.40;99.90;;;;;;6182564;23;19998;-73
2022/10/03 04:44:00;;;;;;;10.90;4.33;;;7.50;99.90;;;;;;6182543;23;20001;-73
2022/10/03 04:46:38;;;;;;;8.83;5.00;;;7.40;99.90;;;;;;6182228;23;20362;-73
2022/10/03 04:49:30;;;;;;;7.67;4.63;;;7.40;99.90;;;;;;6182570;23;19997;-73
2022/10/03 04:52:20;;;;;;;11.10;4.20;;;7.60;99.90;;;;;;6182055;23;20585;-74
2022/10/03 04:55:05;;;;;;;7.80;4.37;;;7.40;99.90;;;;;;6182442;23;20029;-73
2022/10/03 04:57:58;;;;;;;6.57;3.73;;;7.30;99.90;;;;;;6182555;23;20011;-73
2022/10/03 05:00:40;;;;;;;8.07;4.77;;;7.40;99.90;;;;;;6181688;23;20441;-74
2022/10/03 05:03:27;;;;;;;10.67;4.90;;;7.40;99.90;;;;;;6182352;23;20330;-73
2022/10/03 05:06:27;;;;;;;5.83;3.57;;;7.40;99.90;;;;;;6182251;23;19997;-73
2022/10/03 05:09:19;;;;;;;10.57;4.73;;;7.40;99.90;;;;;;6182025;23;20044;-73
2022/10/03 05:12:11;;;;;;;12.20;4.93;;;7.30;99.90;;;;;;6176029;23;20378;-73
2022/10/03 05:14:56;;;;;;;9.43;4.27;;;7.30;99.90;;;;;;6181699;23;20044;-73
2022/10/03 05:17:33;;;;;;;6.30;3.97;;;7.30;99.90;;;;;;6182075;23;20004;-73
2022/10/03 05:20:24;;;;;;;5.47;4.00;;;7.40;99.90;;;;;;6181739;23;20005;-73
2022/10/03 05:23:19;;;;;;;5.90;4.00;;;7.40;99.90;;;;;;6182100;23;20005;-74
2022/10/03 05:26:13;;;;;;;11.43;4.73;;;7.40;99.90;;;;;;6182209;23;20001;-73
2022/10/03 05:28:50;;;;;;;6.35;4.50;;;7.40;99.90;;;;;;6181972;23;20005;-75
2022/10/03 05:31:44;;;;;;;14.60;5.63;;;7.40;99.90;;;;;;6181582;23;20013;-76
2022/10/03 05:34:37;;;;;;;8.75;5.07;;;7.40;99.90;;;;;;6182153;23;20009;-75
2022/10/03 05:37:19;;;;;;;12.17;5.23;;;7.30;99.90;;;;;;6182113;23;20370;-75
2022/10/03 05:40:27;;;;;;;14.07;5.70;;;7.30;99.90;;;;;;6181914;23;20347;-72
2022/10/03 05:43:38;;;;;;;12.83;5.90;;;7.20;99.90;;;;;;6149851;23;20304;-71
2022/10/03 05:46:18;;;;;;;15.60;5.87;;;7.40;99.90;;;;;;6176118;23;20013;-71
2022/10/03 05:48:52;;;;;;;20.77;6.60;;;7.30;99.90;;;;;;6181500;23;20051;-70
2022/10/03 05:51:48;;;;;;;29.70;6.47;;;7.30;99.90;;;;;;6181829;23;20005;-71
2022/10/03 05:54:16;;;;;;;21.13;5.87;;;7.30;99.90;;;;;;6181785;23;20084;-71
2022/10/03 05:57:06;;;;;;;22.07;7.07;;;7.40;99.90;;;;;;6181870;23;20072;-71
2022/10/03 06:00:02;;;;;;;19.90;7.17;;;7.40;99.90;;;;;;6181930;23;20002;-71
2022/10/03 06:02:43;;;;;;;16.37;6.53;;;7.60;99.90;;;;;;6181918;23;20005;-71
2022/10/03 06:05:21;;;;;;;27.93;7.37;;;7.50;99.90;;;;;;6181652;23;20081;-71
2022/10/03 06:08:24;;;;;;;19.10;6.23;;;7.50;99.90;;;;;;6182077;23;20001;-71
2022/10/03 06:11:05;;;;;;;21.20;6.37;;;7.60;99.90;;;;;;6181610;23;20009;-71
2022/10/03 06:13:44;;;;;;;21.13;8.13;;;7.60;99.90;;;;;;6181088;23;20009;-71
2022/10/03 06:16:36;;;;;;;21.90;8.00;;;7.60;99.90;;;;;;6182243;23;20039;-71
2022/10/03 06:19:10;;;;;;;15.43;7.00;;;7.70;99.90;;;;;;6181631;23;20028;-71
2022/10/03 06:21:56;;;;;;;24.37;7.73;;;7.60;99.90;;;;;;6181661;23;20499;-71
2022/10/03 06:24:39;;;;;;;20.23;7.47;;;7.70;99.90;;;;;;6181444;23;19997;-71
2022/10/03 06:27:34;;;;;;;15.17;6.97;;;7.30;99.90;;;;;;6183252;23;20004;-71
2022/10/03 06:30:21;;;;;;;15.60;7.53;;;7.80;99.90;;;;;;6121718;23;20013;-71
2022/10/03 06:32:58;;;;;;;11.63;6.37;;;7.90;99.90;;;;;;6183190;23;20499;-72
2022/10/03 06:35:48;;;;;;;18.23;7.00;;;7.80;99.90;;;;;;6182604;23;20008;-71
2022/10/03 06:38:33;;;;;;;21.03;7.37;;;7.90;99.90;;;;;;6183493;23;20052;-72
2022/10/03 06:41:36;;;;;;;15.07;7.63;;;7.80;99.90;;;;;;6183300;23;20419;-72
2022/10/03 06:44:40;;;;;;;11.63;7.37;;;7.90;99.90;;;;;;6183835;23;20016;-72
2022/10/03 06:47:26;;;;;;;19.50;8.32;;;7.90;99.90;;;;;;6122879;23;20005;-72
2022/10/03 06:50:00;;;;;;;14.77;7.30;;;8.00;99.90;;;;;;6183338;23;20490;-72
2022/10/03 06:52:28;;;;;;;;;;;8.00;99.90;;;;;;6184275;23;20084;-71
2022/10/03 06:55:12;;;;;;;16.43;7.80;;;8.10;99.90;;;;;;6182738;23;19900;-71
2022/10/03 06:57:48;;;;;;;18.80;7.85;;;8.00;99.90;;;;;;6183236;23;20008;-72
2022/10/03 07:00:37;;;;;;;12.07;6.30;;;8.20;99.90;;;;;;6182140;23;20446;-72
2022/10/03 07:03:31;;;;;;;10.23;7.27;;;8.20;99.90;;;;;;6181207;23;20009;-71
2022/10/03 07:06:40;;;;;;;13.23;6.38;;;8.20;99.90;;;;;;6181353;23;20677;-71
2022/10/03 07:09:39;;;;;;;10.23;7.03;;;8.20;99.90;;;;;;6116479;23;20423;-71
2022/10/03 07:12:25;;;;;;;9.67;6.93;;;8.30;99.90;;;;;;6180886;23;20119;-71
2022/10/03 07:15:10;;;;;;;9.43;8.03;;;8.30;99.90;;;;;;6182457;23;20001;-71
2022/10/03 07:18:05;;;;;;;15.00;9.57;;;8.40;99.90;;;;;;6183549;23;20072;-72
2022/10/03 07:20:56;;;;;;;12.50;9.27;;;8.50;99.90;;;;;;6182564;23;20020;-72
2022/10/03 07:24:22;;;;;;;13.70;10.13;;;8.70;99.90;;;;;;6183217;23;20005;-71
2022/10/03 07:27:11;;;;;;;18.83;10.50;;;8.70;99.90;;;;;;6062538;23;20504;-72
2022/10/03 07:29:49;;;;;;;13.63;10.47;;;8.90;99.90;;;;;;6062057;23;20021;-71
2022/10/03 07:32:35;;;;;;;16.80;9.47;;;8.90;99.90;;;;;;6059723;23;20026;-71
2022/10/03 07:35:12;;;;;;;20.60;10.80;;;9.10;99.90;;;;;;6062106;23;20007;-71
2022/10/03 07:41:12;;;;;;;12.60;9.90;;;9.20;99.90;;;;;;6059757;23;20559;-71
2022/10/03 07:44:10;;;;;;;16.63;11.70;;;9.30;99.90;;;;;;6062764;23;20015;-71
2022/10/03 07:46:50;;;;;;;17.70;9.87;;;9.40;99.90;;;;;;6062150;23;20034;-71
2022/10/03 07:49:44;;;;;;;17.37;11.47;;;9.50;99.90;;;;;;6061372;23;20372;-71
2022/10/03 07:52:48;;;;;;;14.53;10.37;;;9.60;99.90;;;;;;6035570;23;20609;-71
2022/10/03 07:55:37;;;;;;;14.15;9.27;;;9.60;99.90;;;;;;6013033;23;20047;-71
2022/10/03 07:58:12;;;;;;;17.63;11.70;;;9.80;99.90;;;;;;6062824;23;20082;-71
2022/10/03 08:01:11;;;;;;;20.17;10.93;;;9.80;99.90;;;;;;6113924;23;20001;-71
2022/10/03 08:04:18;;;;;;;16.30;11.37;;;10.00;99.90;;;;;;6180843;23;20055;-73
2022/10/03 08:07:03;;;;;;;22.77;9.90;;;10.00;99.90;;;;;;6062204;23;20038;-72
2022/10/03 08:09:51;;;;;;;;;;;10.10;99.90;;;;;;6062568;23;20085;-71
2022/10/03 08:12:28;;;;;;;14.23;10.73;;;10.30;99.90;;;;;;6059931;23;19909;-71
2022/10/03 08:15:20;;;;;;;15.43;10.33;;;10.40;99.90;;;;;;6060130;23;20003;-71
2022/10/03 08:17:56;;;;;;;24.23;10.57;;;10.50;99.90;;;;;;6062149;23;20017;-71
2022/10/03 08:20:43;;;;;;;22.33;11.23;;;10.60;99.90;;;;;;6062004;23;20003;-72
2022/10/03 08:24:04;;;;;;;16.90;11.83;;;10.70;99.90;;;;;;6060267;23;20512;-71
2022/10/03 08:26:38;;;;;;;17.80;11.77;;;10.90;99.90;;;;;;5975704;24;20269;-71
2022/10/03 08:29:30;;;;;;;12.83;11.10;;;11.00;99.90;;;;;;5977023;24;20015;-71
2022/10/03 08:32:20;;;;;;;25.20;11.77;;;11.10;99.90;;;;;;5975907;24;20152;-71
2022/10/03 08:35:17;;;;;;;15.23;10.27;;;11.20;99.90;;;;;;5977296;24;20009;-71
2022/10/03 08:38:07;;;;;;;18.37;10.33;;;11.20;99.90;;;;;;5975968;24;20155;-71
2022/10/03 08:41:16;;;;;;;20.85;11.23;;;11.20;99.90;;;;;;5977155;24;20053;-71
2022/10/03 08:44:01;;;;;;;18.98;10.88;;;11.40;99.90;;;;;;6045488;23;20130;-71
2022/10/03 08:46:26;;;;;;;;;;;11.50;99.90;;;;;;6090327;23;20006;-71
2022/10/03 08:49:40;;;;;;;13.32;9.95;;;11.70;99.90;;;;;;6090335;23;19901;-71
2022/10/03 08:52:34;;;;;;;14.05;8.75;;;11.60;99.90;;;;;;6089260;23;20007;-71
2022/10/03 08:55:32;;;;;;;13.25;9.77;;;11.70;99.90;;;;;;6052049;23;20006;-71
2022/10/03 08:58:27;;;;;;;18.27;11.68;;;11.70;99.90;;;;;;6089229;23;20018;-71
2022/10/03 09:01:20;;;;;;;19.23;10.30;;;11.90;99.90;;;;;;6057797;23;20011;-71
2022/10/03 09:04:03;;;;;;;17.88;10.32;;;12.10;99.90;;;;;;6181686;23;20005;-71
2022/10/03 09:06:55;;;;;;;14.93;9.18;;;12.10;99.90;;;;;;6180932;23;20450;-71
2022/10/03 09:09:46;;;;;;;12.63;9.25;;;13.20;99.90;;;;;;6179812;23;20067;-72
2022/10/03 09:12:23;;;;;;;15.57;9.02;;;12.30;99.90;;;;;;6179608;23;20015;-71
2022/10/03 09:14:57;;;;;;;15.88;9.60;;;12.40;99.90;;;;;;6182170;23;20004;-72
2022/10/03 09:17:42;;;;;;;;;;;12.60;99.90;;;;;;6182470;23;20012;-72
2022/10/03 09:20:48;;;;;;;14.07;7.97;;;12.70;99.90;;;;;;6179859;23;20321;-72
2022/10/03 09:23:42;;;;;;;14.45;7.55;;;12.80;99.90;;;;;;6179726;23;20005;-71
2022/10/03 09:26:48;;;;;;;11.75;6.95;;;13.10;99.90;;;;;;6180944;23;20609;-71
2022/10/03 09:29:36;;;;;;;14.88;6.53;;;13.40;99.90;;;;;;6035526;23;20062;-71
2022/10/03 09:32:28;;;;;;;12.55;6.35;;;13.40;99.90;;;;;;6056951;23;20022;-71
2022/10/03 09:35:15;;;;;;;11.63;6.25;;;13.50;99.90;;;;;;6060936;23;20014;-72
2022/10/03 09:38:05;;;;;;;9.45;5.32;;;13.60;99.90;;;;;;6061675;23;20091;-71
2022/10/03 09:41:01;;;;;;;13.65;5.20;;;13.80;99.90;;;;;;6061193;23;20017;-71
2022/10/03 09:44:00;;;;;;;11.98;6.55;;;13.80;99.90;;;;;;6059592;23;20017;-71
2022/10/03 09:46:34;;;;;;;13.35;5.38;;;13.90;99.90;;;;;;6062276;23;20007;-71
2022/10/03 09:49:22;;;;;;;13.57;5.28;;;14.00;99.90;;;;;;6060634;23;20417;-71
2022/10/03 09:52:12;;;;;;;13.00;5.05;;;14.00;99.90;;;;;;6060407;23;20433;-72
2022/10/03 09:55:06;;;;;;;14.93;4.85;;;14.20;99.90;;;;;;6060686;23;20461;-72
2022/10/03 09:57:39;;;;;;;11.13;3.90;;;14.20;99.90;;;;;;6038048;23;20011;-70
2022/10/03 10:00:19;;;;;;;11.82;4.03;;;14.30;99.90;;;;;;6126507;23;20497;-70
2022/10/03 10:03:23;;;;;;;11.10;5.07;;;14.30;99.90;;;;;;6181092;23;20427;-70
2022/10/03 10:06:05;;;;;;;7.10;3.57;;;14.40;99.90;;;;;;6135596;23;20422;-70
2022/10/03 10:08:56;;;;;;;9.23;3.97;;;14.50;99.90;;;;;;6183913;23;20649;-70
2022/10/03 10:11:59;;;;;;;10.80;3.85;;;14.50;99.90;;;;;;6181761;23;20012;-70
2022/10/03 10:14:49;;;;;;;10.43;3.53;;;14.60;99.90;;;;;;6182393;23;20092;-70
2022/10/03 10:17:47;;;;;;;10.52;3.67;;;14.70;99.90;;;;;;6183033;23;20005;-72
2022/10/03 10:20:34;;;;;;;6.28;3.70;;;14.80;99.90;;;;;;6181911;23;20057;-72
2022/10/03 10:23:26;;;;;;;10.52;3.38;;;14.70;99.90;;;;;;6181645;23;20012;-71
2022/10/03 10:26:10;;;;;;;9.35;2.88;;;15.00;99.90;;;;;;6181858;23;20005;-71
2022/10/03 10:28:38;;;;;;;;;;;15.10;99.90;;;;;;6184342;23;20005;-71
2022/10/03 10:31:03;;;;;;;5.97;3.13;;;15.30;99.90;;;;;;6183488;23;20000;-71
2022/10/03 10:33:51;;;;;;;9.57;3.15;;;15.40;99.90;;;;;;6181790;23;20008;-71
2022/10/03 10:36:42;;;;;;;8.82;3.78;;;15.40;99.90;;;;;;6182185;23;20324;-69
2022/10/03 10:39:27;;;;;;;9.15;3.30;;;15.70;99.90;;;;;;6183173;23;20009;-70
2022/10/03 10:42:30;;;;;;;14.55;3.22;;;15.30;99.90;;;;;;6182388;23;20001;-70
2022/10/03 10:45:37;;;;;;;8.50;3.20;;;15.40;99.90;;;;;;6181727;23;20008;-70
2022/10/03 10:48:22;;;;;;;9.13;2.38;;;16.40;99.90;;;;;;6181159;23;20080;-70
2022/10/03 10:50:49;;;;;;;;;;;15.60;99.90;;;;;;6183113;23;20028;-70
2022/10/03 10:53:52;;;;;;;7.50;2.28;;;15.70;99.90;;;;;;6181694;23;19959;-70
2022/10/03 10:56:55;;;;;;;8.27;2.53;;;15.60;99.90;;;;;;6182343;23;20005;-71
2022/10/03 10:59:39;;;;;;;10.05;3.03;;;15.80;99.90;;;;;;6180738;23;20009;-71
2022/10/03 11:02:04;;;;;;;;;;;15.90;99.90;;;;;;6181995;23;20031;-71
2022/10/03 11:05:07;;;;;;;8.77;1.70;;;16.10;99.90;;;;;;6183200;23;19908;-71
2022/10/03 11:08:15;;;;;;;4.88;1.48;;;16.20;99.90;;;;;;6183369;23;20085;-71
2022/10/03 11:11:14;;;;;;;7.13;1.25;;;16.30;99.90;;;;;;6181304;23;20012;-71
2022/10/03 11:14:09;;;;;;;5.05;1.75;;;16.50;99.90;;;;;;6183000;23;20016;-71
2022/10/03 11:17:18;;;;;;;5.45;1.88;;;16.60;99.90;;;;;;6182774;23;20771;-70
2022/10/03 11:20:31;;;;;;;18.27;1.95;;;16.60;99.90;;;;;;6181576;23;20056;-70
2022/10/03 11:23:26;;;;;;;4.43;1.38;;;16.60;99.90;;;;;;6061335;23;20011;-70
2022/10/03 11:26:01;;;;;;;5.47;0.98;;;16.60;99.90;;;;;;6062666;23;20006;-70
2022/10/03 11:29:08;;;;;;;3.95;1.20;;;16.70;99.90;;;;;;6063026;23;20354;-70
2022/10/03 11:31:52;;;;;;;6.75;1.00;;;16.90;99.90;;;;;;6059401;23;20087;-71
2022/10/03 11:34:56;;;;;;;16.48;2.33;;;16.80;99.90;;;;;;6062181;23;20085;-70
2022/10/03 11:37:31;;;;;;;5.85;1.05;;;16.80;99.90;;;;;;6062502;23;20003;-70
2022/10/03 11:40:08;;;;;;;7.00;1.15;;;16.80;99.90;;;;;;6062575;23;20017;-70
2022/10/03 11:42:53;;;;;;;6.05;0.98;;;17.00;99.90;;;;;;6059861;23;20014;-70
2022/10/03 11:45:31;;;;;;;10.32;1.77;;;16.90;99.90;;;;;;6060529;23;20007;-70
2022/10/03 11:48:30;;;;;;;4.75;0.77;;;16.80;99.90;;;;;;6062621;23;20038;-70
2022/10/03 11:51:14;;;;;;;4.50;1.38;;;16.80;99.90;;;;;;6062103;23;20010;-70
2022/10/03 11:54:10;;;;;;;4.13;0.90;;;16.90;99.90;;;;;;6060955;23;20027;-70
2022/10/03 11:56:49;;;;;;;5.05;0.80;;;16.90;99.90;;;;;;6062589;23;20535;-70
2022/10/03 11:59:21;;;;;;;4.25;1.05;;;17.90;99.90;;;;;;6131101;23;20001;-70
2022/10/03 12:02:20;;;;;;;5.93;1.23;;;16.60;99.90;;;;;;6181133;23;20063;-70
2022/10/03 12:05:06;;;;;;;3.70;0.80;;;17.10;99.90;;;;;;6181331;23;20001;-70
2022/10/03 12:10:46;;;;;;;4.43;0.82;;;17.10;99.90;;;;;;6182491;23;20097;-70
2022/10/03 12:13:45;;;;;;;6.25;1.42;;;17.30;99.90;;;;;;6181299;23;20438;-70
2022/10/03 12:16:39;;;;;;;4.25;0.70;;;17.40;99.90;;;;;;6180328;23;20427;-70
2022/10/03 12:19:29;;;;;;;6.20;1.48;;;17.40;99.90;;;;;;6139670;23;20016;-70
2022/10/03 12:22:04;;;;;;;6.55;0.90;;;17.50;99.90;;;;;;6180683;23;20076;-70
2022/10/03 12:24:36;;;;;;;3.80;1.00;;;17.70;99.90;;;;;;6182302;23;20040;-70
2022/10/03 12:27:19;;;;;;;6.20;1.08;;;17.80;99.90;;;;;;6180932;23;20024;-70
2022/10/03 12:29:57;;;;;;;5.53;1.05;;;17.90;99.90;;;;;;6181304;23;20029;-70
2022/10/03 12:32:29;;;;;;;2.63;0.80;;;17.90;99.90;;;;;;6180285;23;20013;-70
2022/10/03 12:35:28;;;;;;;2.67;0.50;;;18.00;99.90;;;;;;6181887;23;20012;-70
2022/10/03 12:38:17;;;;;;;6.90;0.98;;;18.10;99.90;;;;;;6180799;23;20067;-71
2022/10/03 12:40:52;;;;;;;3.45;0.60;;;18.20;99.90;;;;;;6182507;23;20072;-71
2022/10/03 12:43:38;;;;;;;5.30;0.93;;;18.10;99.90;;;;;;6180458;23;20308;-70
2022/10/03 12:46:48;;;;;;;4.75;0.93;;;18.10;99.90;;;;;;6180458;23;20087;-71
2022/10/03 12:49:21;;;;;;;5.03;0.82;;;18.10;99.90;;;;;;6171262;23;20371;-71
2022/10/03 12:51:53;;;;;;;;;;;18.30;99.90;;;;;;6183033;23;20001;-71
2022/10/03 12:54:36;;;;;;;2.45;0.77;;;18.10;99.90;;;;;;6182177;23;19914;-70
2022/10/03 12:57:22;;;;;;;4.65;0.60;;;18.10;99.90;;;;;;6182256;23;20168;-71
2022/10/03 13:00:26;;;;;;;4.78;0.90;;;18.10;99.90;;;;;;6182258;23;20002;-70
2022/10/03 13:03:01;;;;;;;5.47;1.10;;;18.00;99.90;;;;;;6182164;23;20024;-71
2022/10/03 13:05:52;;;;;;;3.97;1.05;;;17.90;99.90;;;;;;6182244;23;20677;-70
2022/10/03 13:08:25;;;;;;;3.92;1.10;;;17.90;99.90;;;;;;6182351;23;19997;-71
2022/10/03 13:11:00;;;;;;;7.30;1.00;;;17.90;99.90;;;;;;6182184;23;20001;-70
2022/10/03 13:13:44;;;;;;;6.07;1.38;;;17.80;99.90;;;;;;6181720;23;20033;-70
2022/10/03 13:16:20;;;;;;;2.30;0.73;;;17.90;99.90;;;;;;6182348;23;20000;-71
2022/10/03 13:18:50;;;;;;;6.03;0.90;;;17.80;99.90;;;;;;6182332;23;20077;-72
2022/10/03 13:21:29;;;;;;;2.85;0.50;;;17.90;99.90;;;;;;6180351;23;20008;-71
2022/10/03 13:24:24;;;;;;;6.38;1.70;;;17.90;99.90;;;;;;6182078;23;20001;-71
2022/10/03 13:27:21;;;;;;;5.55;1.35;;;17.90;99.90;;;;;;6179955;23;20204;-70
2022/10/03 13:29:53;;;;;;;3.00;0.90;;;17.90;99.90;;;;;;6181974;23;20649;-70
2022/10/03 13:32:33;;;;;;;3.83;0.93;;;18.70;99.90;;;;;;6181479;23;20359;-71
2022/10/03 13:38:22;;;;;;;4.78;0.85;;;17.90;99.90;;;;;;6181896;23;20083;-70
2022/10/03 13:41:19;;;;;;;2.90;0.50;;;17.90;99.90;;;;;;6181336;23;20020;-71
2022/10/03 13:43:54;;;;;;;8.55;1.45;;;17.90;99.90;;;;;;6182001;23;20031;-70
2022/10/03 13:46:43;;;;;;;3.55;1.13;;;17.80;99.90;;;;;;6181955;23;20005;-71
2022/10/03 13:49:31;;;;;;;7.40;0.98;;;17.80;99.90;;;;;;6182087;23;20009;-71
2022/10/03 13:52:14;;;;;;;4.88;0.90;;;17.90;99.90;;;;;;6181671;23;20005;-70
2022/10/03 13:55:01;;;;;;;6.55;0.77;;;18.00;99.90;;;;;;6182109;23;20016;-71
2022/10/03 13:57:33;;;;;;;4.53;1.30;;;18.10;99.70;;;;;;6181413;23;20001;-70
2022/10/03 14:00:11;;;;;;;5.32;1.27;;;18.30;99.90;;;;;;6181904;23;20001;-71
2022/10/03 14:03:00;;;;;;;5.63;0.75;;;18.40;99.90;;;;;;6182212;23;20009;-71
2022/10/03 14:05:48;;;;;;;9.05;2.17;;;18.40;99.10;;;;;;6181890;23;20001;-71
2022/10/03 14:08:43;;;;;;;5.20;1.02;;;18.50;98.80;;;;;;6182028;23;20379;-69
2022/10/03 14:11:21;;;;;;;;;;;18.50;98.80;;;;;;6181359;23;20012;-71
2022/10/03 14:14:41;;;;;;;6.72;0.80;;;18.30;99.20;;;;;;6179111;23;19915;-71
2022/10/03 14:17:33;;;;;;;2.38;0.50;;;18.40;99.30;;;;;;6060838;23;20010;-71
2022/10/03 14:20:01;;;;;;;4.20;0.93;;;18.30;98.80;;;;;;6028247;23;20433;-70
2022/10/03 14:22:29;;;;;;;6.70;1.15;;;19.00;99.90;;;;;;6060644;23;20014;-71
2022/10/03 14:25:10;;;;;;;4.40;0.88;;;18.20;98.70;;;;;;6061306;23;20006;-70
2022/10/03 14:27:56;;;;;;;6.65;1.42;;;18.20;98.90;;;;;;6061132;23;20007;-70
2022/10/03 14:30:46;;;;;;;9.10;1.35;;;18.00;99.80;;;;;;6062069;23;20010;-70
2022/10/03 14:33:28;;;;;;;4.95;1.08;;;18.10;99.00;;;;;;6061788;23;20109;-70
2022/10/03 14:36:39;;;;;;;3.25;1.15;;;18.00;99.20;;;;;;6061837;23;20007;-70
2022/10/03 14:39:35;;;;;;;5.22;0.75;;;17.90;99.30;;;;;;5976111;24;20060;-70
2022/10/03 14:42:03;;;;;;;5.47;1.02;;;17.90;99.50;;;;;;5976436;24;20106;-70